Flight Track Log - Related Links

Times and Time Zones

All times are in EDT time to prevent confusion due to time zone crossing. See the SKW3459 flight status page for this flight to view local times or setup timezone preferences in your user account.

Time Position Orientation Groundspeed Altitude Reporting Facility
EDT Latitude Longitude Course Direction KTS MPH feet Rate Location/Type
Thu 08:08:15 PM 33.8500 -118.1833 335° Northwest 163 188 1,600  Level Southern California TRACON
Thu 08:09:15 PM 33.8500 -118.2500 270° West 205 236 3,700 2,350 Climbing Southern California TRACON
Thu 08:10:15 PM 33.8667 -118.3167 287° West 213 245 6,300 2,143 Climbing Southern California TRACON
Thu 08:11:21 PM 33.8833 -118.4000 284° West 283 326 8,200 1,266 Climbing Southern California TRACON
Thu 08:12:23 PM 33.8931 -118.5019 277° West 281 323 9,000 387 Climbing Los Angeles Center
Thu 08:13:00 PM 34.1643 -118.5367 335° Northwest  Level FlightAware Approximate
Thu 08:13:25 PM 33.9031 -118.5956 277° West 281 323 9,000  Level Los Angeles Center
Thu 08:14:27 PM 33.9494 -118.6772 304° West 275 316 9,000  Level Los Angeles Center
Thu 08:15:30 PM 34.0111 -118.7075 338° Northwest 265 305 9,000  Level Los Angeles Center
Thu 08:16:32 PM 34.0836 -118.6703 23° Northeast 262 302 9,000 435 Level Los Angeles Center
Thu 08:17:34 PM 34.1492 -118.6369 23° Northeast 258 297 9,900 1,161 Climbing Los Angeles Center
Thu 08:18:36 PM 34.2253 -118.6383 359° North 288 331 11,400 1,597 Climbing Los Angeles Center
Thu 08:19:38 PM 34.3114 -118.6714 342° North 318 366 13,200 1,887 Climbing Los Angeles Center
Thu 08:20:40 PM 34.4017 -118.7036 344° North 335 386 15,300 1,984 Climbing Los Angeles Center
Thu 08:21:42 PM 34.4936 -118.7389 342° North 344 396 17,300 1,984 Climbing Los Angeles Center
Thu 08:22:44 PM 34.6044 -118.7825 342° North 350 403 19,400 1,839 Climbing Los Angeles Center
Thu 08:23:46 PM 34.6975 -118.8217 341° North 355 409 21,100 1,584 Climbing Los Angeles Center
Thu 08:24:49 PM 34.7925 -118.8583 342° North 357 411 22,700 1,440 Climbing Los Angeles Center
Thu 08:25:51 PM 34.8897 -118.8933 344° North 362 417 24,100 1,210 Climbing Los Angeles Center
Thu 08:26:53 PM 34.9897 -118.9278 344° North 366 421 25,200 1,113 Climbing Los Angeles Center
Thu 08:27:55 PM 35.0917 -118.9639 344° North 382 440 26,400 1,210 Climbing Los Angeles Center
Thu 08:28:57 PM 35.2147 -119.0081 344° North 388 447 27,700 1,016 Climbing Los Angeles Center
Thu 08:29:59 PM 35.3169 -119.0458 343° North 386 444 28,500 823 Climbing Los Angeles Center
Thu 08:31:01 PM 35.4217 -119.0842 343° North 392 451 29,400 1,032 Climbing Los Angeles Center
Thu 08:33:05 PM 35.6272 -119.1603 343° North 385 443 31,700 930 Climbing Los Angeles Center
Thu 08:34:08 PM 35.7506 -119.2064 343° North 386 444 32,300 528 Climbing Los Angeles Center
Thu 08:35:10 PM 35.8553 -119.2456 343° North 391 450 32,800 484 Climbing Los Angeles Center
Thu 08:36:12 PM 35.9611 -119.2858 343° North 397 457 33,300 484 Climbing Los Angeles Center
Thu 08:37:14 PM 36.0681 -119.3264 343° North 402 463 33,800 484 Climbing Los Angeles Center
Thu 08:38:16 PM 36.1767 -119.3669 343° North 406 467 34,300 484 Climbing Los Angeles Center
Thu 08:39:18 PM 36.2842 -119.4072 343° North 406 467 34,800 524 Climbing Los Angeles Center
Thu 08:40:22 PM 36.4161 -119.4547 344° North 410 472 35,400 528 Climbing Oakland Center
Thu 08:41:23 PM 36.5244 -119.4953 343° North 408 470 35,900 295 Climbing Oakland Center
Thu 08:42:24 PM 36.6333 -119.5369 343° North 412 474 36,000 49 Climbing Oakland Center
Thu 08:43:25 PM 36.7442 -119.5783 343° North 416 479 36,000  Level Oakland Center
Thu 08:44:27 PM 36.8556 -119.6244 342° North 419 482 36,000  Level Oakland Center
Thu 08:45:28 PM 36.9642 -119.6672 343° North 410 472 36,000  Level Oakland Center
Thu 08:46:29 PM 37.0747 -119.7097 343° North 414 476 36,000  Level Oakland Center
Thu 08:47:30 PM 37.2064 -119.7614 343° North 415 478 36,000  Level Oakland Center
Thu 08:48:32 PM 37.3158 -119.8044 343° North 413 475 36,000  Level Oakland Center
Thu 08:49:33 PM 37.4258 -119.8464 343° North 417 480 36,000  Level Oakland Center
Thu 08:50:35 PM 37.5367 -119.8881 343° North 423 487 36,000  Level Oakland Center
Thu 08:51:36 PM 37.6481 -119.9258 345° North 425 489 36,000  Level Oakland Center
Thu 08:52:37 PM 37.7556 -119.9686 343° North 414 476 36,000  Level Oakland Center
Thu 08:53:39 PM 37.8647 -120.0128 342° North 410 472 36,000  Level Oakland Center
Thu 08:54:40 PM 37.9725 -120.0569 342° North 409 471 36,000  Level Oakland Center
Thu 08:55:42 PM 38.1042 -120.1086 343° North 412 474 36,000  Level Oakland Center
Thu 08:56:43 PM 38.2128 -120.1514 343° North 410 472 36,000  Level Oakland Center
Thu 08:57:44 PM 38.3203 -120.1950 342° North 407 468 36,000  Level Oakland Center
Thu 08:58:46 PM 38.4294 -120.2381 343° North 411 473 36,000  Level Oakland Center
Thu 08:59:47 PM 38.5389 -120.2825 342° North 413 475 36,000  Level Oakland Center
Thu 09:00:48 PM 38.6483 -120.3261 343° North 412 474 36,000  Level Oakland Center
Thu 09:01:50 PM 38.7569 -120.3703 342° North 412 474 36,000  Level Oakland Center
Thu 09:02:51 PM 38.8661 -120.4156 342° North 414 476 36,000  Level Oakland Center
Thu 09:03:52 PM 38.9975 -120.4694 342° North 413 475 36,000  Level Oakland Center
Thu 09:04:54 PM 39.1064 -120.5125 343° North 412 474 36,000  Level Oakland Center
Thu 09:05:55 PM 39.2164 -120.5575 342° North 415 478 36,000  Level Oakland Center
Thu 09:06:56 PM 39.3264 -120.6028 342° North 416 479 36,000  Level Oakland Center
Thu 09:07:58 PM 39.4361 -120.6483 342° North 416 479 36,000  Level Oakland Center
Thu 09:08:59 PM 39.5450 -120.6931 342° North 413 475 36,000  Level Oakland Center
Thu 09:10:00 PM 39.6536 -120.7381 342° North 411 473 36,000  Level Oakland Center
Thu 09:11:02 PM 39.7636 -120.7844 342° North 415 478 36,000  Level Oakland Center
Thu 09:12:03 PM 39.8950 -120.8389 342° North 414 476 36,000  Level Oakland Center
Thu 09:13:05 PM 40.0047 -120.8858 342° North 415 478 36,000  Level Oakland Center
Thu 09:14:06 PM 40.1081 -120.9272 343° North 412 474 36,000  Level Oakland Center
Thu 09:15:07 PM 40.2158 -120.9747 341° North 412 474 36,000  Level Oakland Center
Thu 09:16:09 PM 40.3236 -121.0197 342° North 409 471 36,000  Level Oakland Center
Thu 09:17:10 PM 40.4317 -121.0661 342° North 410 472 36,000  Level Oakland Center
Thu 09:18:11 PM 40.5622 -121.1214 342° North 412 474 36,000  Level Oakland Center
Thu 09:19:13 PM 40.6722 -121.1781 339° North 426 490 36,000  Level Oakland Center
Thu 09:20:14 PM 40.7831 -121.2214 344° North 417 480 36,000  Level Oakland Center
Thu 09:21:15 PM 40.8931 -121.2650 343° North 416 479 36,000  Level Oakland Center
Thu 09:22:16 PM 41.0036 -121.3142 341° North 418 481 36,000  Level Oakland Center
Thu 09:23:19 PM 41.1156 -121.3633 342° North 415 478 36,000  Level Seattle Center
Thu 09:24:20 PM 41.2275 -121.4131 342° North 422 486 36,000  Level Seattle Center
Thu 09:25:21 PM 41.3381 -121.4617 342° North 420 483 36,000  Level Seattle Center
Thu 09:26:22 PM 41.4486 -121.5108 342° North 419 482 36,000  Level Seattle Center
Thu 09:27:23 PM 41.5589 -121.5586 342° North 417 480 36,000  Level Seattle Center
Thu 09:28:23 PM 41.6692 -121.6083 341° North 417 480 36,000  Level Seattle Center
Thu 09:29:24 PM 41.8014 -121.6667 342° North 418 481 36,000  Level Seattle Center
Thu 09:30:25 PM 41.9103 -121.7139 342° North 414 476 36,000  Level Seattle Center
Thu 09:31:26 PM 42.0192 -121.7619 342° North 417 480 36,000  Level Seattle Center
Thu 09:32:27 PM 42.1267 -121.8111 341° North 417 480 36,000  Level Seattle Center
Thu 09:33:28 PM 42.2344 -121.8589 342° North 416 479 36,000  Level Seattle Center
Thu 09:34:29 PM 42.3422 -121.9075 342° North 414 476 36,000  Level Seattle Center
Thu 09:35:29 PM 42.4492 -121.9564 341° North 410 472 36,000  Level Seattle Center
Thu 09:36:30 PM 42.5581 -122.0050 342° North 412 474 36,000  Level Seattle Center
Thu 09:37:31 PM 42.6653 -122.0547 341° North 409 471 36,000  Level Seattle Center
Thu 09:38:32 PM 42.7742 -122.1047 341° North 414 476 36,000  Level Seattle Center
Thu 09:39:33 PM 42.9042 -122.1631 342° North 412 474 36,000  Level Seattle Center
Thu 09:40:34 PM 43.0147 -122.2150 341° North 411 473 36,000  Level Seattle Center
Thu 09:41:35 PM 43.1272 -122.2664 342° North 412 474 36,000  Level Seattle Center
Thu 09:42:36 PM 43.2353 -122.3147 342° North 411 473 36,000 -99 Level Seattle Center
Thu 09:43:36 PM 43.3431 -122.3683 340° North 412 474 35,800 -893 Descending Seattle Center
Thu 09:44:37 PM 43.4519 -122.4172 342° North 413 475 34,200 -1,574 Descending Seattle Center
Thu 09:45:38 PM 43.5589 -122.4672 341° North 408 470 32,600 -1,574 Descending Seattle Center
Thu 09:46:39 PM 43.6672 -122.5189 341° North 411 473 31,000 -1,574 Descending Seattle Center
Thu 09:47:40 PM 43.7789 -122.5722 341° North 426 490 29,400 -1,623 Descending Seattle Center
Thu 09:48:41 PM 43.8900 -122.6264 341° North 426 490 27,700 -1,672 Descending Seattle Center
Thu 09:49:42 PM 44.0025 -122.6819 340° North 431 496 26,000 -1,736 Descending Seattle Center
Thu 09:50:42 PM 44.1153 -122.7356 341° North 432 497 24,200 -1,835 Descending Seattle Center
Thu 09:51:43 PM 44.2347 -122.7428 358° North 439 505 22,300 -1,820 Descending Seattle Center
Thu 09:52:44 PM 44.3522 -122.7339 North 436 502 20,500 -2,016 Descending Seattle Center
Thu 09:53:45 PM 44.4914 -122.7197 North 423 487 18,200 -1,869 Descending Seattle Center
Thu 09:54:46 PM 44.6028 -122.7086 North 408 470 16,700 -1,672 Descending Seattle Center
Thu 09:55:47 PM 44.7128 -122.6983 North 401 461 14,800 -1,869 Descending Seattle Center
Thu 09:56:48 PM 44.8178 -122.6878 North 387 445 12,900 -1,671 Descending Seattle Center
Thu 09:57:06 PM 44.8531 -122.6836 North 347 399 12,600 -800 Descending Seattle Center
Thu 09:57:48 PM 44.9089 -122.6786 North 347 399 12,100 -689 Descending Seattle Center
Thu 09:58:07 PM 44.9403 -122.6761 North 302 348 11,900 -689 Descending Seattle Center
Thu 09:58:49 PM 44.9947 -122.6700 North 318 366 11,400 -787 Descending Seattle Center
Thu 09:59:08 PM 45.0336 -122.6658 North 335 386 11,100 -885 Descending Seattle Center
Thu 09:59:50 PM 45.0833 -122.6408 20° North 326 375 10,500 -1,211 Descending Seattle Center
Thu 10:01:02 PM 45.1772 -122.5833 23° Northeast 281 323 8,800 -1,377 Descending Seattle Center
Thu 10:01:52 PM 45.2269 -122.5547 22° Northeast 281 323 7,700 -1,623 Descending Seattle Center
Thu 10:03:04 PM 45.3186 -122.5011 22° Northeast 273 314 5,500 -1,672 Descending Seattle Center
Thu 10:03:54 PM 45.3661 -122.4708 24° Northeast 273 314 4,300 -1,622 Descending Seattle Center
Thu 10:04:55 PM 45.4464 -122.4217 23° Northeast 266 306 2,500 -934 Descending Seattle Center
Thu 10:05:56 PM 45.5086 -122.3981 15° North 234 269 2,400 -148 Descending Seattle Center
Thu 10:06:57 PM 45.5442 -122.4650 307° West 223 257 2,200 -793 Descending Seattle Center
Thu 10:07:57 PM 45.5689 -122.5258 300° West 198 228 800 -942 Descending Seattle Center
Thu 10:08:58 PM 45.5864 -122.5717 299° West 183 211 300 -492 Descending Seattle Center
Thu 10:10:00 PM 45.5833 -122.5833 316° Northwest  Level FlightAware Approximate

Login

Don't have an account? Register now (free) for customized features, flight alerts, and more!